sensor_id;sensor_type;location;lat;lon;timestamp;temperature;humidity
61392;DHT22;47261;52.892;5.738;2024-01-27T00:01:55;5.10;99.90
61392;DHT22;47261;52.892;5.738;2024-01-27T00:04:20;5.10;99.90
61392;DHT22;47261;52.892;5.738;2024-01-27T00:06:46;5.10;99.90
61392;DHT22;47261;52.892;5.738;2024-01-27T00:09:11;5.10;99.90
61392;DHT22;47261;52.892;5.738;2024-01-27T00:11:37;5.00;99.90
61392;DHT22;47261;52.892;5.738;2024-01-27T00:14:03;5.00;99.90
61392;DHT22;47261;52.892;5.738;2024-01-27T00:16:28;5.00;99.90
61392;DHT22;47261;52.892;5.738;2024-01-27T00:18:54;5.00;99.90
61392;DHT22;47261;52.892;5.738;2024-01-27T00:21:19;5.00;99.90
61392;DHT22;47261;52.892;5.738;2024-01-27T00:23:45;4.90;99.90
61392;DHT22;47261;52.892;5.738;2024-01-27T00:26:11;4.90;99.90
61392;DHT22;47261;52.892;5.738;2024-01-27T00:28:36;4.90;99.90
61392;DHT22;47261;52.892;5.738;2024-01-27T00:31:02;5.00;99.90
61392;DHT22;47261;52.892;5.738;2024-01-27T00:33:27;4.90;99.90
61392;DHT22;47261;52.892;5.738;2024-01-27T00:35:53;4.90;99.90
61392;DHT22;47261;52.892;5.738;2024-01-27T00:38:19;4.80;99.90
61392;DHT22;47261;52.892;5.738;2024-01-27T00:40:45;4.80;99.90
61392;DHT22;47261;52.892;5.738;2024-01-27T00:43:10;4.80;99.90
61392;DHT22;47261;52.892;5.738;2024-01-27T00:45:36;4.80;99.90
61392;DHT22;47261;52.892;5.738;2024-01-27T00:48:02;4.80;99.90
61392;DHT22;47261;52.892;5.738;2024-01-27T00:50:27;4.80;99.90
61392;DHT22;47261;52.892;5.738;2024-01-27T00:52:53;4.80;99.90
61392;DHT22;47261;52.892;5.738;2024-01-27T00:55:19;4.80;99.90
61392;DHT22;47261;52.892;5.738;2024-01-27T00:57:44;4.80;99.90
61392;DHT22;47261;52.892;5.738;2024-01-27T01:00:10;4.80;99.90
61392;DHT22;47261;52.892;5.738;2024-01-27T01:02:37;4.80;99.90
61392;DHT22;47261;52.892;5.738;2024-01-27T01:05:03;4.80;99.90
61392;DHT22;47261;52.892;5.738;2024-01-27T01:07:32;4.80;99.90
61392;DHT22;47261;52.892;5.738;2024-01-27T01:09:58;4.90;99.90
61392;DHT22;47261;52.892;5.738;2024-01-27T01:12:24;4.80;99.90
61392;DHT22;47261;52.892;5.738;2024-01-27T01:14:51;4.80;99.90
61392;DHT22;47261;52.892;5.738;2024-01-27T01:17:17;4.80;99.90
61392;DHT22;47261;52.892;5.738;2024-01-27T01:19:43;4.80;99.90
61392;DHT22;47261;52.892;5.738;2024-01-27T01:22:09;4.70;99.90
61392;DHT22;47261;52.892;5.738;2024-01-27T01:24:34;4.70;99.90
61392;DHT22;47261;52.892;5.738;2024-01-27T01:27:00;4.70;99.90
61392;DHT22;47261;52.892;5.738;2024-01-27T01:29:26;4.70;99.90
61392;DHT22;47261;52.892;5.738;2024-01-27T01:31:52;4.70;99.90
61392;DHT22;47261;52.892;5.738;2024-01-27T01:34:17;4.70;99.90
61392;DHT22;47261;52.892;5.738;2024-01-27T01:36:43;4.70;99.90
61392;DHT22;47261;52.892;5.738;2024-01-27T01:39:10;4.70;99.90
61392;DHT22;47261;52.892;5.738;2024-01-27T01:41:36;4.70;99.90
61392;DHT22;47261;52.892;5.738;2024-01-27T01:44:02;4.70;99.90
61392;DHT22;47261;52.892;5.738;2024-01-27T01:46:28;4.70;99.90
61392;DHT22;47261;52.892;5.738;2024-01-27T01:48:54;4.70;99.90
61392;DHT22;47261;52.892;5.738;2024-01-27T01:51:20;4.70;99.90
61392;DHT22;47261;52.892;5.738;2024-01-27T01:53:48;4.70;99.90
61392;DHT22;47261;52.892;5.738;2024-01-27T01:56:17;4.70;99.90
61392;DHT22;47261;52.892;5.738;2024-01-27T01:58:42;4.70;99.90
61392;DHT22;47261;52.892;5.738;2024-01-27T02:01:09;4.70;99.90
61392;DHT22;47261;52.892;5.738;2024-01-27T02:03:34;4.70;99.90
61392;DHT22;47261;52.892;5.738;2024-01-27T02:06:00;4.70;99.90
61392;DHT22;47261;52.892;5.738;2024-01-27T02:08:25;4.70;99.90
61392;DHT22;47261;52.892;5.738;2024-01-27T02:10:51;4.80;99.90
61392;DHT22;47261;52.892;5.738;2024-01-27T02:13:21;4.80;99.90
61392;DHT22;47261;52.892;5.738;2024-01-27T02:15:48;4.90;99.90
61392;DHT22;47261;52.892;5.738;2024-01-27T02:18:14;4.90;99.90
61392;DHT22;47261;52.892;5.738;2024-01-27T02:20:40;4.90;99.90
61392;DHT22;47261;52.892;5.738;2024-01-27T02:23:06;4.90;99.90
61392;DHT22;47261;52.892;5.738;2024-01-27T02:25:32;4.80;99.90
61392;DHT22;47261;52.892;5.738;2024-01-27T02:27:58;4.80;99.90
61392;DHT22;47261;52.892;5.738;2024-01-27T02:30:24;4.80;99.90
61392;DHT22;47261;52.892;5.738;2024-01-27T02:32:50;4.70;99.90
61392;DHT22;47261;52.892;5.738;2024-01-27T02:35:16;4.70;99.90
61392;DHT22;47261;52.892;5.738;2024-01-27T02:37:42;4.70;99.90
61392;DHT22;47261;52.892;5.738;2024-01-27T02:40:08;4.70;99.90
61392;DHT22;47261;52.892;5.738;2024-01-27T02:42:37;4.70;99.90
61392;DHT22;47261;52.892;5.738;2024-01-27T02:45:03;4.70;99.90
61392;DHT22;47261;52.892;5.738;2024-01-27T02:47:29;4.70;99.90
61392;DHT22;47261;52.892;5.738;2024-01-27T02:49:55;4.70;99.90
61392;DHT22;47261;52.892;5.738;2024-01-27T02:52:21;4.70;99.90
61392;DHT22;47261;52.892;5.738;2024-01-27T02:54:47;4.70;99.90
61392;DHT22;47261;52.892;5.738;2024-01-27T02:57:12;4.80;99.90
61392;DHT22;47261;52.892;5.738;2024-01-27T02:59:38;4.80;99.90
61392;DHT22;47261;52.892;5.738;2024-01-27T03:02:07;4.80;99.90
61392;DHT22;47261;52.892;5.738;2024-01-27T03:04:33;4.80;99.90
61392;DHT22;47261;52.892;5.738;2024-01-27T03:06:59;4.80;99.90
61392;DHT22;47261;52.892;5.738;2024-01-27T03:09:25;4.80;99.90
61392;DHT22;47261;52.892;5.738;2024-01-27T03:11:50;4.70;99.90
61392;DHT22;47261;52.892;5.738;2024-01-27T03:14:16;4.70;99.90
61392;DHT22;47261;52.892;5.738;2024-01-27T03:16:43;4.70;99.90
61392;DHT22;47261;52.892;5.738;2024-01-27T03:19:09;4.70;99.90
61392;DHT22;47261;52.892;5.738;2024-01-27T03:21:35;4.70;99.90
61392;DHT22;47261;52.892;5.738;2024-01-27T03:24:00;4.80;99.90
61392;DHT22;47261;52.892;5.738;2024-01-27T03:26:26;4.80;99.90
61392;DHT22;47261;52.892;5.738;2024-01-27T03:28:51;4.80;99.90
61392;DHT22;47261;52.892;5.738;2024-01-27T03:31:17;4.80;99.90
61392;DHT22;47261;52.892;5.738;2024-01-27T03:33:43;4.80;99.90
61392;DHT22;47261;52.892;5.738;2024-01-27T03:36:12;4.80;99.90
61392;DHT22;47261;52.892;5.738;2024-01-27T03:38:41;4.80;99.90
61392;DHT22;47261;52.892;5.738;2024-01-27T03:41:07;4.80;99.90
61392;DHT22;47261;52.892;5.738;2024-01-27T03:43:33;4.80;99.90
61392;DHT22;47261;52.892;5.738;2024-01-27T03:45:59;4.90;99.90
61392;DHT22;47261;52.892;5.738;2024-01-27T03:48:25;4.90;99.90
61392;DHT22;47261;52.892;5.738;2024-01-27T03:50:51;4.90;99.90
61392;DHT22;47261;52.892;5.738;2024-01-27T03:53:16;4.90;99.90
61392;DHT22;47261;52.892;5.738;2024-01-27T03:55:42;4.90;99.90
61392;DHT22;47261;52.892;5.738;2024-01-27T03:58:07;4.90;99.90
61392;DHT22;47261;52.892;5.738;2024-01-27T04:00:33;4.90;99.90
61392;DHT22;47261;52.892;5.738;2024-01-27T04:02:59;5.00;99.90
61392;DHT22;47261;52.892;5.738;2024-01-27T04:05:26;5.00;99.90
61392;DHT22;47261;52.892;5.738;2024-01-27T04:07:51;5.00;99.90
61392;DHT22;47261;52.892;5.738;2024-01-27T04:10:18;5.00;99.90
61392;DHT22;47261;52.892;5.738;2024-01-27T04:12:44;5.00;99.90
61392;DHT22;47261;52.892;5.738;2024-01-27T04:15:10;5.00;99.90
61392;DHT22;47261;52.892;5.738;2024-01-27T04:17:37;5.00;99.90
61392;DHT22;47261;52.892;5.738;2024-01-27T04:20:03;5.00;99.90
61392;DHT22;47261;52.892;5.738;2024-01-27T04:22:31;5.00;99.90
61392;DHT22;47261;52.892;5.738;2024-01-27T04:24:56;5.00;99.90
61392;DHT22;47261;52.892;5.738;2024-01-27T04:27:22;5.10;99.90
61392;DHT22;47261;52.892;5.738;2024-01-27T04:29:48;5.10;99.90
61392;DHT22;47261;52.892;5.738;2024-01-27T04:32:13;5.10;99.90
61392;DHT22;47261;52.892;5.738;2024-01-27T04:34:39;5.10;99.90
61392;DHT22;47261;52.892;5.738;2024-01-27T04:37:05;5.10;99.90
61392;DHT22;47261;52.892;5.738;2024-01-27T04:39:31;5.10;99.90
61392;DHT22;47261;52.892;5.738;2024-01-27T04:41:56;5.00;99.90
61392;DHT22;47261;52.892;5.738;2024-01-27T04:44:22;5.00;99.90
61392;DHT22;47261;52.892;5.738;2024-01-27T04:46:48;5.00;99.90
61392;DHT22;47261;52.892;5.738;2024-01-27T04:49:16;5.10;99.90
61392;DHT22;47261;52.892;5.738;2024-01-27T04:51:42;5.10;99.90
61392;DHT22;47261;52.892;5.738;2024-01-27T04:54:09;5.10;99.90
61392;DHT22;47261;52.892;5.738;2024-01-27T04:56:35;5.10;99.90
61392;DHT22;47261;52.892;5.738;2024-01-27T04:59:01;5.20;99.90
61392;DHT22;47261;52.892;5.738;2024-01-27T05:01:26;5.20;99.90
61392;DHT22;47261;52.892;5.738;2024-01-27T05:03:52;5.20;99.90
61392;DHT22;47261;52.892;5.738;2024-01-27T05:06:18;5.20;99.90
61392;DHT22;47261;52.892;5.738;2024-01-27T05:08:43;5.30;99.90
61392;DHT22;47261;52.892;5.738;2024-01-27T05:11:09;5.30;99.90
61392;DHT22;47261;52.892;5.738;2024-01-27T05:13:35;5.30;99.90
61392;DHT22;47261;52.892;5.738;2024-01-27T05:16:03;5.30;99.90
61392;DHT22;47261;52.892;5.738;2024-01-27T05:18:29;5.30;99.90
61392;DHT22;47261;52.892;5.738;2024-01-27T05:20:54;5.30;99.90
61392;DHT22;47261;52.892;5.738;2024-01-27T05:23:20;5.30;99.90
61392;DHT22;47261;52.892;5.738;2024-01-27T05:25:46;5.30;99.90
61392;DHT22;47261;52.892;5.738;2024-01-27T05:28:11;5.30;99.90
61392;DHT22;47261;52.892;5.738;2024-01-27T05:30:37;5.30;99.90
61392;DHT22;47261;52.892;5.738;2024-01-27T05:33:02;5.20;99.90
61392;DHT22;47261;52.892;5.738;2024-01-27T05:35:29;5.20;99.90
61392;DHT22;47261;52.892;5.738;2024-01-27T05:37:55;5.30;99.90
61392;DHT22;47261;52.892;5.738;2024-01-27T05:40:20;5.30;99.90
61392;DHT22;47261;52.892;5.738;2024-01-27T05:42:46;5.30;99.90
61392;DHT22;47261;52.892;5.738;2024-01-27T05:45:12;5.30;99.90
61392;DHT22;47261;52.892;5.738;2024-01-27T05:47:38;5.30;99.90
61392;DHT22;47261;52.892;5.738;2024-01-27T05:50:04;5.30;99.90
61392;DHT22;47261;52.892;5.738;2024-01-27T05:52:30;5.30;99.90
61392;DHT22;47261;52.892;5.738;2024-01-27T05:54:55;5.30;99.90
61392;DHT22;47261;52.892;5.738;2024-01-27T05:57:21;5.30;99.90
61392;DHT22;47261;52.892;5.738;2024-01-27T05:59:47;5.30;99.90
61392;DHT22;47261;52.892;5.738;2024-01-27T06:02:12;5.20;99.90
61392;DHT22;47261;52.892;5.738;2024-01-27T06:04:38;5.20;99.90
61392;DHT22;47261;52.892;5.738;2024-01-27T06:07:04;5.20;99.90
61392;DHT22;47261;52.892;5.738;2024-01-27T06:09:30;5.10;99.90
61392;DHT22;47261;52.892;5.738;2024-01-27T06:11:59;5.10;99.90
61392;DHT22;47261;52.892;5.738;2024-01-27T06:14:25;5.10;99.90
61392;DHT22;47261;52.892;5.738;2024-01-27T06:16:50;5.10;99.90
61392;DHT22;47261;52.892;5.738;2024-01-27T06:19:16;5.10;99.90
61392;DHT22;47261;52.892;5.738;2024-01-27T06:21:42;5.10;99.90
61392;DHT22;47261;52.892;5.738;2024-01-27T06:24:07;5.10;99.90
61392;DHT22;47261;52.892;5.738;2024-01-27T06:26:33;5.10;99.90
61392;DHT22;47261;52.892;5.738;2024-01-27T06:28:59;5.10;99.90
61392;DHT22;47261;52.892;5.738;2024-01-27T06:31:25;5.00;99.90
61392;DHT22;47261;52.892;5.738;2024-01-27T06:33:51;5.10;99.90
61392;DHT22;47261;52.892;5.738;2024-01-27T06:36:17;5.10;99.90
61392;DHT22;47261;52.892;5.738;2024-01-27T06:38:43;5.00;99.90
61392;DHT22;47261;52.892;5.738;2024-01-27T06:41:09;5.00;99.90
61392;DHT22;47261;52.892;5.738;2024-01-27T06:43:35;5.00;99.90
61392;DHT22;47261;52.892;5.738;2024-01-27T06:46:01;5.10;99.90
61392;DHT22;47261;52.892;5.738;2024-01-27T06:48:26;5.00;99.90
61392;DHT22;47261;52.892;5.738;2024-01-27T06:50:52;5.10;99.90
61392;DHT22;47261;52.892;5.738;2024-01-27T06:53:19;5.00;99.90
61392;DHT22;47261;52.892;5.738;2024-01-27T06:55:45;5.10;99.90
61392;DHT22;47261;52.892;5.738;2024-01-27T06:58:11;5.10;99.90
61392;DHT22;47261;52.892;5.738;2024-01-27T07:00:36;5.10;99.90
61392;DHT22;47261;52.892;5.738;2024-01-27T07:03:02;5.10;99.90
61392;DHT22;47261;52.892;5.738;2024-01-27T07:05:28;5.10;99.90
61392;DHT22;47261;52.892;5.738;2024-01-27T07:07:53;5.10;99.90
61392;DHT22;47261;52.892;5.738;2024-01-27T07:10:19;5.10;99.90
61392;DHT22;47261;52.892;5.738;2024-01-27T07:12:45;5.10;99.90
61392;DHT22;47261;52.892;5.738;2024-01-27T07:15:11;5.10;99.90
61392;DHT22;47261;52.892;5.738;2024-01-27T07:17:36;5.10;99.90
61392;DHT22;47261;52.892;5.738;2024-01-27T07:20:02;5.10;99.90
61392;DHT22;47261;52.892;5.738;2024-01-27T07:22:28;5.10;99.90
61392;DHT22;47261;52.892;5.738;2024-01-27T07:24:54;5.20;99.90
61392;DHT22;47261;52.892;5.738;2024-01-27T07:27:21;5.20;99.90
61392;DHT22;47261;52.892;5.738;2024-01-27T07:29:47;5.10;99.90
61392;DHT22;47261;52.892;5.738;2024-01-27T07:32:13;5.10;99.90
61392;DHT22;47261;52.892;5.738;2024-01-27T07:34:43;5.20;99.90
61392;DHT22;47261;52.892;5.738;2024-01-27T07:37:09;5.20;99.90
61392;DHT22;47261;52.892;5.738;2024-01-27T07:39:35;5.20;99.90
61392;DHT22;47261;52.892;5.738;2024-01-27T07:42:01;5.20;99.90
61392;DHT22;47261;52.892;5.738;2024-01-27T07:44:27;5.20;99.90
61392;DHT22;47261;52.892;5.738;2024-01-27T07:46:52;5.20;99.90
61392;DHT22;47261;52.892;5.738;2024-01-27T07:49:18;5.20;99.90
61392;DHT22;47261;52.892;5.738;2024-01-27T07:51:44;5.20;99.90
61392;DHT22;47261;52.892;5.738;2024-01-27T07:54:09;5.20;99.90
61392;DHT22;47261;52.892;5.738;2024-01-27T07:56:35;5.30;99.90
61392;DHT22;47261;52.892;5.738;2024-01-27T07:59:01;5.30;99.90
61392;DHT22;47261;52.892;5.738;2024-01-27T08:01:27;5.30;99.90
61392;DHT22;47261;52.892;5.738;2024-01-27T08:03:52;5.30;99.90
61392;DHT22;47261;52.892;5.738;2024-01-27T08:06:22;5.30;99.90
61392;DHT22;47261;52.892;5.738;2024-01-27T08:08:48;5.30;99.90
61392;DHT22;47261;52.892;5.738;2024-01-27T08:11:14;5.30;99.90
61392;DHT22;47261;52.892;5.738;2024-01-27T08:13:41;5.30;99.90
61392;DHT22;47261;52.892;5.738;2024-01-27T08:16:08;5.30;99.90
61392;DHT22;47261;52.892;5.738;2024-01-27T08:18:36;5.30;99.90
61392;DHT22;47261;52.892;5.738;2024-01-27T08:21:03;5.40;99.90
61392;DHT22;47261;52.892;5.738;2024-01-27T08:23:29;5.40;99.90
61392;DHT22;47261;52.892;5.738;2024-01-27T08:25:54;5.40;99.90
61392;DHT22;47261;52.892;5.738;2024-01-27T08:28:20;5.50;99.90
61392;DHT22;47261;52.892;5.738;2024-01-27T08:30:46;5.60;99.90
61392;DHT22;47261;52.892;5.738;2024-01-27T08:33:11;5.60;99.90
61392;DHT22;47261;52.892;5.738;2024-01-27T08:35:37;5.70;99.90
61392;DHT22;47261;52.892;5.738;2024-01-27T08:38:03;5.80;99.90
61392;DHT22;47261;52.892;5.738;2024-01-27T08:40:31;5.90;99.90
61392;DHT22;47261;52.892;5.738;2024-01-27T08:42:57;6.00;99.90
61392;DHT22;47261;52.892;5.738;2024-01-27T08:45:22;6.10;99.90
61392;DHT22;47261;52.892;5.738;2024-01-27T08:47:48;6.10;99.90
61392;DHT22;47261;52.892;5.738;2024-01-27T08:50:14;6.20;99.90
61392;DHT22;47261;52.892;5.738;2024-01-27T08:52:39;6.30;99.90
61392;DHT22;47261;52.892;5.738;2024-01-27T08:55:05;6.40;99.90
61392;DHT22;47261;52.892;5.738;2024-01-27T08:57:31;6.40;99.90
61392;DHT22;47261;52.892;5.738;2024-01-27T08:59:56;6.40;99.90
61392;DHT22;47261;52.892;5.738;2024-01-27T09:02:23;6.50;99.90
61392;DHT22;47261;52.892;5.738;2024-01-27T09:04:48;6.50;99.90
61392;DHT22;47261;52.892;5.738;2024-01-27T09:07:14;6.60;99.90
61392;DHT22;47261;52.892;5.738;2024-01-27T09:09:40;6.80;99.90
61392;DHT22;47261;52.892;5.738;2024-01-27T09:12:06;6.80;99.90
61392;DHT22;47261;52.892;5.738;2024-01-27T09:14:32;7.00;99.90
61392;DHT22;47261;52.892;5.738;2024-01-27T09:17:00;7.00;99.90
61392;DHT22;47261;52.892;5.738;2024-01-27T09:19:26;7.10;99.90
61392;DHT22;47261;52.892;5.738;2024-01-27T09:21:51;7.20;99.90
61392;DHT22;47261;52.892;5.738;2024-01-27T09:24:17;7.20;99.90
61392;DHT22;47261;52.892;5.738;2024-01-27T09:26:42;7.30;99.90
61392;DHT22;47261;52.892;5.738;2024-01-27T09:29:08;7.30;99.90
61392;DHT22;47261;52.892;5.738;2024-01-27T09:31:34;7.40;99.90
61392;DHT22;47261;52.892;5.738;2024-01-27T09:34:00;7.40;99.90
61392;DHT22;47261;52.892;5.738;2024-01-27T09:36:26;7.50;99.90
61392;DHT22;47261;52.892;5.738;2024-01-27T09:38:52;7.60;99.90
61392;DHT22;47261;52.892;5.738;2024-01-27T09:41:18;7.60;99.90
61392;DHT22;47261;52.892;5.738;2024-01-27T09:43:45;7.70;99.90
61392;DHT22;47261;52.892;5.738;2024-01-27T09:46:15;7.80;99.90
61392;DHT22;47261;52.892;5.738;2024-01-27T09:48:41;7.80;99.90
61392;DHT22;47261;52.892;5.738;2024-01-27T09:51:08;7.90;99.90
61392;DHT22;47261;52.892;5.738;2024-01-27T09:53:34;7.90;99.90
61392;DHT22;47261;52.892;5.738;2024-01-27T09:56:01;8.00;99.90
61392;DHT22;47261;52.892;5.738;2024-01-27T09:58:29;8.00;99.90
61392;DHT22;47261;52.892;5.738;2024-01-27T10:00:59;8.00;99.90
61392;DHT22;47261;52.892;5.738;2024-01-27T10:03:26;8.10;99.90
61392;DHT22;47261;52.892;5.738;2024-01-27T10:05:53;8.20;99.90
61392;DHT22;47261;52.892;5.738;2024-01-27T10:08:21;8.30;99.90
61392;DHT22;47261;52.892;5.738;2024-01-27T10:10:47;8.30;99.90
61392;DHT22;47261;52.892;5.738;2024-01-27T10:13:16;8.30;99.90
61392;DHT22;47261;52.892;5.738;2024-01-27T10:16:00;8.40;99.90
61392;DHT22;47261;52.892;5.738;2024-01-27T10:18:26;8.50;99.90
61392;DHT22;47261;52.892;5.738;2024-01-27T10:20:51;8.50;99.90
61392;DHT22;47261;52.892;5.738;2024-01-27T10:23:17;8.50;99.90
61392;DHT22;47261;52.892;5.738;2024-01-27T10:25:43;8.60;99.90
61392;DHT22;47261;52.892;5.738;2024-01-27T10:28:09;8.60;99.90
61392;DHT22;47261;52.892;5.738;2024-01-27T10:30:36;8.70;99.90
61392;DHT22;47261;52.892;5.738;2024-01-27T10:33:01;8.70;99.90
61392;DHT22;47261;52.892;5.738;2024-01-27T10:35:28;8.60;99.90
61392;DHT22;47261;52.892;5.738;2024-01-27T10:37:54;8.60;99.90
61392;DHT22;47261;52.892;5.738;2024-01-27T10:40:20;8.70;99.90
61392;DHT22;47261;52.892;5.738;2024-01-27T10:42:46;8.70;99.90
61392;DHT22;47261;52.892;5.738;2024-01-27T10:45:15;8.70;99.90
61392;DHT22;47261;52.892;5.738;2024-01-27T10:47:42;8.80;99.90
61392;DHT22;47261;52.892;5.738;2024-01-27T10:50:09;8.90;99.90
61392;DHT22;47261;52.892;5.738;2024-01-27T10:52:38;8.90;99.90
61392;DHT22;47261;52.892;5.738;2024-01-27T10:55:05;8.90;99.90
61392;DHT22;47261;52.892;5.738;2024-01-27T10:57:34;8.90;99.90
61392;DHT22;47261;52.892;5.738;2024-01-27T11:00:04;8.80;99.90
61392;DHT22;47261;52.892;5.738;2024-01-27T11:02:35;8.80;99.90
61392;DHT22;47261;52.892;5.738;2024-01-27T11:05:04;8.90;99.90
61392;DHT22;47261;52.892;5.738;2024-01-27T11:07:34;8.80;99.90
61392;DHT22;47261;52.892;5.738;2024-01-27T11:10:01;8.80;99.90
61392;DHT22;47261;52.892;5.738;2024-01-27T11:12:26;8.80;99.90
61392;DHT22;47261;52.892;5.738;2024-01-27T11:14:53;8.80;99.90
61392;DHT22;47261;52.892;5.738;2024-01-27T11:17:19;8.90;99.90
61392;DHT22;47261;52.892;5.738;2024-01-27T11:19:45;8.90;99.90
61392;DHT22;47261;52.892;5.738;2024-01-27T11:22:24;8.90;99.90
61392;DHT22;47261;52.892;5.738;2024-01-27T11:24:52;8.80;99.90
61392;DHT22;47261;52.892;5.738;2024-01-27T11:27:18;8.90;99.90
61392;DHT22;47261;52.892;5.738;2024-01-27T11:29:47;8.90;99.90
61392;DHT22;47261;52.892;5.738;2024-01-27T11:32:15;8.90;99.90
61392;DHT22;47261;52.892;5.738;2024-01-27T11:34:44;8.90;99.90
61392;DHT22;47261;52.892;5.738;2024-01-27T11:37:12;8.90;99.90
61392;DHT22;47261;52.892;5.738;2024-01-27T11:39:37;8.90;99.90
61392;DHT22;47261;52.892;5.738;2024-01-27T11:42:10;9.00;99.90
61392;DHT22;47261;52.892;5.738;2024-01-27T11:44:40;9.00;99.90
61392;DHT22;47261;52.892;5.738;2024-01-27T11:47:17;9.00;99.90
61392;DHT22;47261;52.892;5.738;2024-01-27T11:49:48;9.00;99.90
61392;DHT22;47261;52.892;5.738;2024-01-27T11:52:15;9.00;99.90
61392;DHT22;47261;52.892;5.738;2024-01-27T11:54:41;8.90;99.90
61392;DHT22;47261;52.892;5.738;2024-01-27T11:57:06;8.90;99.90
61392;DHT22;47261;52.892;5.738;2024-01-27T11:59:33;8.90;99.90
61392;DHT22;47261;52.892;5.738;2024-01-27T12:02:03;8.90;99.90
61392;DHT22;47261;52.892;5.738;2024-01-27T12:04:29;8.90;99.90
61392;DHT22;47261;52.892;5.738;2024-01-27T12:06:55;8.90;99.90
61392;DHT22;47261;52.892;5.738;2024-01-27T12:09:20;8.80;99.90
61392;DHT22;47261;52.892;5.738;2024-01-27T12:11:47;8.80;99.90
61392;DHT22;47261;52.892;5.738;2024-01-27T12:14:13;8.80;99.90
61392;DHT22;47261;52.892;5.738;2024-01-27T12:16:39;8.80;99.90
61392;DHT22;47261;52.892;5.738;2024-01-27T12:19:05;8.80;99.90
61392;DHT22;47261;52.892;5.738;2024-01-27T12:21:30;8.90;99.90
61392;DHT22;47261;52.892;5.738;2024-01-27T12:23:57;8.80;99.90
61392;DHT22;47261;52.892;5.738;2024-01-27T12:26:25;8.80;99.90
61392;DHT22;47261;52.892;5.738;2024-01-27T12:28:51;8.80;99.90
61392;DHT22;47261;52.892;5.738;2024-01-27T12:31:18;8.80;99.90
61392;DHT22;47261;52.892;5.738;2024-01-27T12:33:51;8.80;99.90
61392;DHT22;47261;52.892;5.738;2024-01-27T12:36:18;8.70;99.90
61392;DHT22;47261;52.892;5.738;2024-01-27T12:38:57;8.80;99.90
61392;DHT22;47261;52.892;5.738;2024-01-27T12:41:24;8.80;99.90
61392;DHT22;47261;52.892;5.738;2024-01-27T12:43:50;8.80;99.90
61392;DHT22;47261;52.892;5.738;2024-01-27T12:46:15;8.90;99.90
61392;DHT22;47261;52.892;5.738;2024-01-27T12:48:42;9.00;99.90
61392;DHT22;47261;52.892;5.738;2024-01-27T12:51:08;9.10;99.90
61392;DHT22;47261;52.892;5.738;2024-01-27T12:53:34;9.10;99.90
61392;DHT22;47261;52.892;5.738;2024-01-27T12:56:00;9.20;99.90
61392;DHT22;47261;52.892;5.738;2024-01-27T12:58:26;9.20;99.90
61392;DHT22;47261;52.892;5.738;2024-01-27T13:00:51;9.20;99.90
61392;DHT22;47261;52.892;5.738;2024-01-27T13:03:17;9.20;99.90
61392;DHT22;47261;52.892;5.738;2024-01-27T13:05:43;9.30;99.90
61392;DHT22;47261;52.892;5.738;2024-01-27T13:08:09;9.30;99.90
61392;DHT22;47261;52.892;5.738;2024-01-27T13:10:35;9.30;99.90
61392;DHT22;47261;52.892;5.738;2024-01-27T13:13:00;9.30;99.90
61392;DHT22;47261;52.892;5.738;2024-01-27T13:15:26;9.40;99.90
61392;DHT22;47261;52.892;5.738;2024-01-27T13:17:52;9.40;99.90
61392;DHT22;47261;52.892;5.738;2024-01-27T13:20:18;9.40;99.90
61392;DHT22;47261;52.892;5.738;2024-01-27T13:22:43;9.40;99.90
61392;DHT22;47261;52.892;5.738;2024-01-27T13:25:10;9.40;99.90
61392;DHT22;47261;52.892;5.738;2024-01-27T13:27:36;9.40;99.90
61392;DHT22;47261;52.892;5.738;2024-01-27T13:30:02;9.40;99.90
61392;DHT22;47261;52.892;5.738;2024-01-27T13:32:27;9.40;99.90
61392;DHT22;47261;52.892;5.738;2024-01-27T13:34:53;9.40;99.90
61392;DHT22;47261;52.892;5.738;2024-01-27T13:37:19;9.40;99.90
61392;DHT22;47261;52.892;5.738;2024-01-27T13:39:45;9.50;99.90
61392;DHT22;47261;52.892;5.738;2024-01-27T13:42:11;9.50;99.90
61392;DHT22;47261;52.892;5.738;2024-01-27T13:44:37;9.50;99.90
61392;DHT22;47261;52.892;5.738;2024-01-27T13:47:03;9.40;99.90
61392;DHT22;47261;52.892;5.738;2024-01-27T13:49:33;9.30;99.90
61392;DHT22;47261;52.892;5.738;2024-01-27T13:51:59;9.30;99.90
61392;DHT22;47261;52.892;5.738;2024-01-27T13:54:24;9.20;99.90
61392;DHT22;47261;52.892;5.738;2024-01-27T13:56:50;9.20;99.90
61392;DHT22;47261;52.892;5.738;2024-01-27T13:59:16;9.30;99.90
61392;DHT22;47261;52.892;5.738;2024-01-27T14:01:42;9.30;99.90
61392;DHT22;47261;52.892;5.738;2024-01-27T14:04:07;9.30;99.90
61392;DHT22;47261;52.892;5.738;2024-01-27T14:06:34;9.30;99.90
61392;DHT22;47261;52.892;5.738;2024-01-27T14:09:00;9.30;99.90
61392;DHT22;47261;52.892;5.738;2024-01-27T14:11:27;9.30;99.90
61392;DHT22;47261;52.892;5.738;2024-01-27T14:13:53;9.30;99.90
61392;DHT22;47261;52.892;5.738;2024-01-27T14:16:19;9.30;99.90
61392;DHT22;47261;52.892;5.738;2024-01-27T14:18:45;9.20;99.90
61392;DHT22;47261;52.892;5.738;2024-01-27T14:21:11;9.20;99.90
61392;DHT22;47261;52.892;5.738;2024-01-27T14:23:37;9.20;99.90
61392;DHT22;47261;52.892;5.738;2024-01-27T14:26:03;9.20;99.90
61392;DHT22;47261;52.892;5.738;2024-01-27T14:28:29;9.20;99.90
61392;DHT22;47261;52.892;5.738;2024-01-27T14:30:55;9.20;99.90
61392;DHT22;47261;52.892;5.738;2024-01-27T14:33:20;9.20;99.90
61392;DHT22;47261;52.892;5.738;2024-01-27T14:35:49;9.20;99.90
61392;DHT22;47261;52.892;5.738;2024-01-27T14:38:15;9.20;99.90
61392;DHT22;47261;52.892;5.738;2024-01-27T14:40:40;9.20;99.90
61392;DHT22;47261;52.892;5.738;2024-01-27T14:43:06;9.20;99.90
61392;DHT22;47261;52.892;5.738;2024-01-27T14:45:35;9.20;99.90
61392;DHT22;47261;52.892;5.738;2024-01-27T14:48:02;9.20;99.90
61392;DHT22;47261;52.892;5.738;2024-01-27T14:50:28;9.20;99.90
61392;DHT22;47261;52.892;5.738;2024-01-27T14:52:54;9.20;99.90
61392;DHT22;47261;52.892;5.738;2024-01-27T14:55:19;9.20;99.90
61392;DHT22;47261;52.892;5.738;2024-01-27T14:57:45;9.10;99.90
61392;DHT22;47261;52.892;5.738;2024-01-27T15:00:11;9.10;99.90
61392;DHT22;47261;52.892;5.738;2024-01-27T15:02:40;9.10;99.90
61392;DHT22;47261;52.892;5.738;2024-01-27T15:05:06;9.00;99.90
61392;DHT22;47261;52.892;5.738;2024-01-27T15:07:34;9.00;99.90
61392;DHT22;47261;52.892;5.738;2024-01-27T15:10:00;8.90;99.90
61392;DHT22;47261;52.892;5.738;2024-01-27T15:12:25;8.80;99.90
61392;DHT22;47261;52.892;5.738;2024-01-27T15:14:51;8.80;99.90
61392;DHT22;47261;52.892;5.738;2024-01-27T15:17:18;8.70;99.90
61392;DHT22;47261;52.892;5.738;2024-01-27T15:19:43;8.60;99.90
61392;DHT22;47261;52.892;5.738;2024-01-27T15:22:09;8.60;99.90
61392;DHT22;47261;52.892;5.738;2024-01-27T15:24:35;8.50;99.90
61392;DHT22;47261;52.892;5.738;2024-01-27T15:27:02;8.50;99.90
61392;DHT22;47261;52.892;5.738;2024-01-27T15:29:28;8.40;99.90
61392;DHT22;47261;52.892;5.738;2024-01-27T15:31:54;8.40;99.90
61392;DHT22;47261;52.892;5.738;2024-01-27T15:34:19;8.30;99.90
61392;DHT22;47261;52.892;5.738;2024-01-27T15:36:45;8.20;99.90
61392;DHT22;47261;52.892;5.738;2024-01-27T15:39:11;8.10;99.90